sensor_id;sensor_type;location;lat;lon;timestamp;temperature;humidity
77218;DHT22;66214;51.302;17.068;2024-02-21T00:00:38;6.37;84.55
77218;DHT22;66214;51.302;17.068;2024-02-21T00:03:44;6.34;84.63
77218;DHT22;66214;51.302;17.068;2024-02-21T00:06:12;6.34;84.75
77218;DHT22;66214;51.302;17.068;2024-02-21T00:08:40;6.35;84.93
77218;DHT22;66214;51.302;17.068;2024-02-21T00:11:08;6.38;85.04
77218;DHT22;66214;51.302;17.068;2024-02-21T00:13:37;6.41;85.07
77218;DHT22;66214;51.302;17.068;2024-02-21T00:16:05;6.45;84.96
77218;DHT22;66214;51.302;17.068;2024-02-21T00:18:33;6.47;84.71
77218;DHT22;66214;51.302;17.068;2024-02-21T00:21:01;6.50;84.47
77218;DHT22;66214;51.302;17.068;2024-02-21T00:23:30;6.51;84.26
77218;DHT22;66214;51.302;17.068;2024-02-21T00:25:58;6.53;84.03
77218;DHT22;66214;51.302;17.068;2024-02-21T00:28:26;6.54;84.12
77218;DHT22;66214;51.302;17.068;2024-02-21T00:30:54;6.56;84.37
77218;DHT22;66214;51.302;17.068;2024-02-21T00:33:23;6.58;84.51
77218;DHT22;66214;51.302;17.068;2024-02-21T00:35:51;6.61;84.60
77218;DHT22;66214;51.302;17.068;2024-02-21T00:38:19;6.62;84.47
77218;DHT22;66214;51.302;17.068;2024-02-21T00:40:47;6.63;84.25
77218;DHT22;66214;51.302;17.068;2024-02-21T00:43:15;6.63;83.98
77218;DHT22;66214;51.302;17.068;2024-02-21T00:45:43;6.63;83.95
77218;DHT22;66214;51.302;17.068;2024-02-21T00:48:11;6.63;84.03
77218;DHT22;66214;51.302;17.068;2024-02-21T00:50:39;6.63;84.21
77218;DHT22;66214;51.302;17.068;2024-02-21T00:53:07;6.64;84.38
77218;DHT22;66214;51.302;17.068;2024-02-21T00:55:35;6.65;84.50
77218;DHT22;66214;51.302;17.068;2024-02-21T00:58:03;6.65;84.61
77218;DHT22;66214;51.302;17.068;2024-02-21T01:00:32;6.62;84.53
77218;DHT22;66214;51.302;17.068;2024-02-21T01:03:00;6.59;84.39
77218;DHT22;66214;51.302;17.068;2024-02-21T01:05:28;6.58;84.30
77218;DHT22;66214;51.302;17.068;2024-02-21T01:07:56;6.55;84.41
77218;DHT22;66214;51.302;17.068;2024-02-21T01:10:24;6.53;84.56
77218;DHT22;66214;51.302;17.068;2024-02-21T01:12:52;6.53;84.65
77218;DHT22;66214;51.302;17.068;2024-02-21T01:15:20;6.52;84.72
77218;DHT22;66214;51.302;17.068;2024-02-21T01:17:48;6.49;84.58
77218;DHT22;66214;51.302;17.068;2024-02-21T01:20:18;6.45;84.46
77218;DHT22;66214;51.302;17.068;2024-02-21T01:22:46;6.43;84.37
77218;DHT22;66214;51.302;17.068;2024-02-21T01:25:14;6.42;84.28
77218;DHT22;66214;51.302;17.068;2024-02-21T01:27:43;6.40;84.44
77218;DHT22;66214;51.302;17.068;2024-02-21T01:30:11;6.40;84.73
77218;DHT22;66214;51.302;17.068;2024-02-21T01:32:40;6.41;84.95
77218;DHT22;66214;51.302;17.068;2024-02-21T01:35:08;6.42;85.20
77218;DHT22;66214;51.302;17.068;2024-02-21T01:37:36;6.44;85.23
77218;DHT22;66214;51.302;17.068;2024-02-21T01:40:05;6.48;85.02
77218;DHT22;66214;51.302;17.068;2024-02-21T01:42:37;6.50;84.88
77218;DHT22;66214;51.302;17.068;2024-02-21T01:45:08;6.51;84.69
77218;DHT22;66214;51.302;17.068;2024-02-21T01:47:38;6.55;84.66
77218;DHT22;66214;51.302;17.068;2024-02-21T01:50:06;6.58;84.83
77218;DHT22;66214;51.302;17.068;2024-02-21T05:03:48;6.07;88.49
77218;DHT22;66214;51.302;17.068;2024-02-21T05:06:17;6.07;88.26
77218;DHT22;66214;51.302;17.068;2024-02-21T05:08:46;6.06;88.32
77218;DHT22;66214;51.302;17.068;2024-02-21T05:11:15;6.05;88.29
77218;DHT22;66214;51.302;17.068;2024-02-21T05:13:43;6.06;88.26
77218;DHT22;66214;51.302;17.068;2024-02-21T05:16:11;6.05;88.22
77218;DHT22;66214;51.302;17.068;2024-02-21T05:18:40;6.05;88.15
77218;DHT22;66214;51.302;17.068;2024-02-21T05:21:10;6.04;88.01
77218;DHT22;66214;51.302;17.068;2024-02-21T05:23:38;6.04;87.93
77218;DHT22;66214;51.302;17.068;2024-02-21T05:26:07;6.05;88.01
77218;DHT22;66214;51.302;17.068;2024-02-21T05:28:37;6.05;88.02
77218;DHT22;66214;51.302;17.068;2024-02-21T05:31:05;6.07;88.04
77218;DHT22;66214;51.302;17.068;2024-02-21T05:33:34;6.08;88.08
77218;DHT22;66214;51.302;17.068;2024-02-21T05:36:02;6.08;87.95
77218;DHT22;66214;51.302;17.068;2024-02-21T05:38:32;6.09;87.82
77218;DHT22;66214;51.302;17.068;2024-02-21T05:41:00;6.09;87.79
77218;DHT22;66214;51.302;17.068;2024-02-21T05:43:29;6.10;87.84
77218;DHT22;66214;51.302;17.068;2024-02-21T05:45:57;6.10;87.84
77218;DHT22;66214;51.302;17.068;2024-02-21T05:48:26;6.12;87.81
77218;DHT22;66214;51.302;17.068;2024-02-21T05:50:54;6.12;87.83
77218;DHT22;66214;51.302;17.068;2024-02-21T05:53:23;6.11;87.73
77218;DHT22;66214;51.302;17.068;2024-02-21T05:55:51;6.10;87.60
77218;DHT22;66214;51.302;17.068;2024-02-21T05:58:20;6.11;87.61
77218;DHT22;66214;51.302;17.068;2024-02-21T06:00:49;6.11;87.69
77218;DHT22;66214;51.302;17.068;2024-02-21T06:03:17;6.10;87.69
77218;DHT22;66214;51.302;17.068;2024-02-21T06:05:46;6.11;87.71
77218;DHT22;66214;51.302;17.068;2024-02-21T06:08:14;6.09;87.59
77218;DHT22;66214;51.302;17.068;2024-02-21T06:10:42;6.09;87.45
77218;DHT22;66214;51.302;17.068;2024-02-21T06:13:10;6.09;87.40
77218;DHT22;66214;51.302;17.068;2024-02-21T06:15:38;6.09;87.45
77218;DHT22;66214;51.302;17.068;2024-02-21T06:18:07;6.10;87.50
77218;DHT22;66214;51.302;17.068;2024-02-21T06:20:35;6.11;87.53
77218;DHT22;66214;51.302;17.068;2024-02-21T06:23:04;6.14;87.57
77218;DHT22;66214;51.302;17.068;2024-02-21T06:25:32;6.18;87.60
77218;DHT22;66214;51.302;17.068;2024-02-21T06:28:00;6.20;87.40
77218;DHT22;66214;51.302;17.068;2024-02-21T06:30:28;6.22;87.21
77218;DHT22;66214;51.302;17.068;2024-02-21T06:32:57;6.21;87.23
77218;DHT22;66214;51.302;17.068;2024-02-21T06:35:26;6.21;87.26
77218;DHT22;66214;51.302;17.068;2024-02-21T06:37:54;6.24;87.32
77218;DHT22;66214;51.302;17.068;2024-02-21T06:40:23;6.27;87.29
77218;DHT22;66214;51.302;17.068;2024-02-21T06:42:52;6.28;87.13
77218;DHT22;66214;51.302;17.068;2024-02-21T06:45:20;6.29;86.96
77218;DHT22;66214;51.302;17.068;2024-02-21T06:47:48;6.30;86.86
77218;DHT22;66214;51.302;17.068;2024-02-21T06:50:17;6.34;86.86
77218;DHT22;66214;51.302;17.068;2024-02-21T06:52:45;6.37;86.88
77218;DHT22;66214;51.302;17.068;2024-02-21T06:55:13;6.39;86.86
77218;DHT22;66214;51.302;17.068;2024-02-21T06:57:41;6.41;86.90
77218;DHT22;66214;51.302;17.068;2024-02-21T07:00:10;6.45;86.87
77218;DHT22;66214;51.302;17.068;2024-02-21T07:02:39;6.49;86.67
77218;DHT22;66214;51.302;17.068;2024-02-21T07:05:07;6.52;86.47
77218;DHT22;66214;51.302;17.068;2024-02-21T07:07:36;6.57;86.28
77218;DHT22;66214;51.302;17.068;2024-02-21T07:10:05;6.63;86.27
77218;DHT22;66214;51.302;17.068;2024-02-21T07:12:34;6.70;86.32
77218;DHT22;66214;51.302;17.068;2024-02-21T07:15:04;6.77;86.35
77218;DHT22;66214;51.302;17.068;2024-02-21T07:17:33;6.81;86.23
77218;DHT22;66214;51.302;17.068;2024-02-21T07:20:01;6.84;86.00
77218;DHT22;66214;51.302;17.068;2024-02-21T07:22:30;6.87;85.92
77218;DHT22;66214;51.302;17.068;2024-02-21T07:24:58;6.92;85.99
77218;DHT22;66214;51.302;17.068;2024-02-21T07:27:27;6.96;86.01
77218;DHT22;66214;51.302;17.068;2024-02-21T07:29:58;6.99;85.98
77218;DHT22;66214;51.302;17.068;2024-02-21T07:32:27;7.01;85.92
77218;DHT22;66214;51.302;17.068;2024-02-21T07:34:56;7.02;85.78
77218;DHT22;66214;51.302;17.068;2024-02-21T07:37:24;7.01;85.69
77218;DHT22;66214;51.302;17.068;2024-02-21T07:39:52;6.97;85.61
77218;DHT22;66214;51.302;17.068;2024-02-21T07:42:20;6.97;85.78
77218;DHT22;66214;51.302;17.068;2024-02-21T07:44:48;7.00;85.83
77218;DHT22;66214;51.302;17.068;2024-02-21T07:47:17;7.03;85.78
77218;DHT22;66214;51.302;17.068;2024-02-21T07:49:46;7.06;85.74
77218;DHT22;66214;51.302;17.068;2024-02-21T07:52:16;7.08;85.79
77218;DHT22;66214;51.302;17.068;2024-02-21T07:54:44;7.12;85.81
77218;DHT22;66214;51.302;17.068;2024-02-21T07:57:12;7.16;85.86
77218;DHT22;66214;51.302;17.068;2024-02-21T07:59:40;7.20;85.92
77218;DHT22;66214;51.302;17.068;2024-02-21T08:03:50;7.24;85.99
77218;DHT22;66214;51.302;17.068;2024-02-21T08:09:42;7.24;85.89
77218;DHT22;66214;51.302;17.068;2024-02-21T08:12:10;7.28;85.94
77218;DHT22;66214;51.302;17.068;2024-02-21T08:14:38;7.31;85.89
77218;DHT22;66214;51.302;17.068;2024-02-21T08:20:34;7.38;86.03
77218;DHT22;66214;51.302;17.068;2024-02-21T08:23:03;7.38;85.79
77218;DHT22;66214;51.302;17.068;2024-02-21T08:25:31;7.40;85.74
77218;DHT22;66214;51.302;17.068;2024-02-21T08:28:00;7.45;85.75
77218;DHT22;66214;51.302;17.068;2024-02-21T08:30:28;7.48;85.74
77218;DHT22;66214;51.302;17.068;2024-02-21T08:32:56;7.52;85.76
77218;DHT22;66214;51.302;17.068;2024-02-21T08:35:24;7.56;85.79
77218;DHT22;66214;51.302;17.068;2024-02-21T08:37:54;7.61;85.68
77218;DHT22;66214;51.302;17.068;2024-02-21T08:40:23;7.66;85.49
77218;DHT22;66214;51.302;17.068;2024-02-21T08:42:51;7.74;85.41
77218;DHT22;66214;51.302;17.068;2024-02-21T08:45:21;7.82;84.98
77218;DHT22;66214;51.302;17.068;2024-02-21T08:47:50;7.82;84.75
77218;DHT22;66214;51.302;17.068;2024-02-21T08:50:18;7.80;84.89
77218;DHT22;66214;51.302;17.068;2024-02-21T08:52:46;7.81;84.89
77218;DHT22;66214;51.302;17.068;2024-02-21T08:55:14;7.83;84.90
77218;DHT22;66214;51.302;17.068;2024-02-21T08:57:43;7.85;84.83
77218;DHT22;66214;51.302;17.068;2024-02-21T09:00:12;7.84;84.65
77218;DHT22;66214;51.302;17.068;2024-02-21T09:02:56;7.83;84.73
77218;DHT22;66214;51.302;17.068;2024-02-21T09:05:25;7.83;84.80
77218;DHT22;66214;51.302;17.068;2024-02-21T09:07:53;7.82;84.86
77218;DHT22;66214;51.302;17.068;2024-02-21T09:10:22;7.82;84.99
77218;DHT22;66214;51.302;17.068;2024-02-21T09:16:03;7.87;85.04
77218;DHT22;66214;51.302;17.068;2024-02-21T09:18:32;7.92;84.93
77218;DHT22;66214;51.302;17.068;2024-02-21T09:21:02;7.93;84.91
77218;DHT22;66214;51.302;17.068;2024-02-21T09:23:32;7.99;84.93
77218;DHT22;66214;51.302;17.068;2024-02-21T09:26:01;8.01;84.79
77218;DHT22;66214;51.302;17.068;2024-02-21T09:28:33;8.02;84.71
77218;DHT22;66214;51.302;17.068;2024-02-21T09:31:03;8.08;84.77
77218;DHT22;66214;51.302;17.068;2024-02-21T09:33:31;8.11;84.60
77218;DHT22;66214;51.302;17.068;2024-02-21T09:36:01;8.14;84.47
77218;DHT22;66214;51.302;17.068;2024-02-21T09:38:33;8.18;84.38
77218;DHT22;66214;51.302;17.068;2024-02-21T09:41:04;8.25;84.41
77218;DHT22;66214;51.302;17.068;2024-02-21T09:43:45;8.32;84.33
77218;DHT22;66214;51.302;17.068;2024-02-21T09:46:18;8.37;84.38
77218;DHT22;66214;51.302;17.068;2024-02-21T09:48:58;8.39;84.25
77218;DHT22;66214;51.302;17.068;2024-02-21T09:51:51;8.37;84.12
77218;DHT22;66214;51.302;17.068;2024-02-21T09:54:23;8.36;84.15
77218;DHT22;66214;51.302;17.068;2024-02-21T09:56:53;8.36;84.30
77218;DHT22;66214;51.302;17.068;2024-02-21T09:59:23;8.38;84.39
77218;DHT22;66214;51.302;17.068;2024-02-21T10:01:53;8.40;84.36
77218;DHT22;66214;51.302;17.068;2024-02-21T10:04:23;8.43;84.27
77218;DHT22;66214;51.302;17.068;2024-02-21T10:06:54;8.40;84.10
77218;DHT22;66214;51.302;17.068;2024-02-21T10:09:26;8.39;84.24
77218;DHT22;66214;51.302;17.068;2024-02-21T10:12:07;8.43;84.40
77218;DHT22;66214;51.302;17.068;2024-02-21T10:15:06;8.49;84.38
77218;DHT22;66214;51.302;17.068;2024-02-21T10:17:35;8.51;84.13
77218;DHT22;66214;51.302;17.068;2024-02-21T10:26:43;8.61;83.92
77218;DHT22;66214;51.302;17.068;2024-02-21T10:29:11;8.62;83.84
77218;DHT22;66214;51.302;17.068;2024-02-21T10:31:39;8.62;83.65
77218;DHT22;66214;51.302;17.068;2024-02-21T10:34:08;8.57;83.56
77218;DHT22;66214;51.302;17.068;2024-02-21T10:36:36;8.54;83.69
77218;DHT22;66214;51.302;17.068;2024-02-21T10:39:05;8.56;83.67
77218;DHT22;66214;51.302;17.068;2024-02-21T10:41:35;8.58;83.50
77218;DHT22;66214;51.302;17.068;2024-02-21T10:44:06;8.58;83.19
77218;DHT22;66214;51.302;17.068;2024-02-21T10:46:38;8.57;83.11
77218;DHT22;66214;51.302;17.068;2024-02-21T10:49:10;8.61;83.15
77218;DHT22;66214;51.302;17.068;2024-02-21T10:51:44;8.63;83.07
77218;DHT22;66214;51.302;17.068;2024-02-21T10:57:14;8.64;82.86
77218;DHT22;66214;51.302;17.068;2024-02-21T10:59:45;8.65;82.71
77218;DHT22;66214;51.302;17.068;2024-02-21T11:03:51;8.71;82.83
77218;DHT22;66214;51.302;17.068;2024-02-21T11:06:22;8.76;82.73
77218;DHT22;66214;51.302;17.068;2024-02-21T11:09:06;8.76;82.85
77218;DHT22;66214;51.302;17.068;2024-02-21T11:11:54;8.77;82.88
77218;DHT22;66214;51.302;17.068;2024-02-21T11:14:28;8.79;82.84
77218;DHT22;66214;51.302;17.068;2024-02-21T11:17:01;8.76;82.25
77218;DHT22;66214;51.302;17.068;2024-02-21T11:19:31;8.71;82.08
77218;DHT22;66214;51.302;17.068;2024-02-21T11:21:59;8.69;82.16
77218;DHT22;66214;51.302;17.068;2024-02-21T11:24:29;8.75;82.41
77218;DHT22;66214;51.302;17.068;2024-02-21T11:27:08;8.89;82.62
77218;DHT22;66214;51.302;17.068;2024-02-21T11:29:43;8.98;82.38
77218;DHT22;66214;51.302;17.068;2024-02-21T11:32:17;9.02;82.01
77218;DHT22;66214;51.302;17.068;2024-02-21T11:37:33;9.05;82.08
77218;DHT22;66214;51.302;17.068;2024-02-21T11:40:06;9.05;81.92
77218;DHT22;66214;51.302;17.068;2024-02-21T11:42:37;9.04;81.87
77218;DHT22;66214;51.302;17.068;2024-02-21T11:45:07;9.07;81.59
77218;DHT22;66214;51.302;17.068;2024-02-21T11:47:39;9.08;81.50
77218;DHT22;66214;51.302;17.068;2024-02-21T11:50:12;9.15;81.78
77218;DHT22;66214;51.302;17.068;2024-02-21T11:52:40;9.18;81.18
77218;DHT22;66214;51.302;17.068;2024-02-21T11:55:08;9.21;81.07
77218;DHT22;66214;51.302;17.068;2024-02-21T11:57:37;9.26;80.92
77218;DHT22;66214;51.302;17.068;2024-02-21T12:00:17;9.32;80.81
77218;DHT22;66214;51.302;17.068;2024-02-21T12:02:52;9.36;80.86
77218;DHT22;66214;51.302;17.068;2024-02-21T12:05:21;9.41;80.58
77218;DHT22;66214;51.302;17.068;2024-02-21T12:07:51;9.45;80.53
77218;DHT22;66214;51.302;17.068;2024-02-21T12:10:20;9.49;80.16
77218;DHT22;66214;51.302;17.068;2024-02-21T12:12:48;9.45;79.72
77218;DHT22;66214;51.302;17.068;2024-02-21T12:15:19;9.42;79.74
77218;DHT22;66214;51.302;17.068;2024-02-21T12:17:48;9.44;79.90
77218;DHT22;66214;51.302;17.068;2024-02-21T12:20:20;9.48;80.06
77218;DHT22;66214;51.302;17.068;2024-02-21T12:22:49;9.54;79.97
77218;DHT22;66214;51.302;17.068;2024-02-21T12:25:18;9.61;79.76
77218;DHT22;66214;51.302;17.068;2024-02-21T12:27:54;9.66;79.54
77218;DHT22;66214;51.302;17.068;2024-02-21T12:30:24;9.69;79.36
77218;DHT22;66214;51.302;17.068;2024-02-21T12:32:53;9.68;79.37
77218;DHT22;66214;51.302;17.068;2024-02-21T12:35:21;9.67;79.05
77218;DHT22;66214;51.302;17.068;2024-02-21T12:37:49;9.59;78.44
77218;DHT22;66214;51.302;17.068;2024-02-21T12:43:37;9.60;79.16
77218;DHT22;66214;51.302;17.068;2024-02-21T12:46:07;9.64;79.30
77218;DHT22;66214;51.302;17.068;2024-02-21T12:48:36;9.66;79.12
77218;DHT22;66214;51.302;17.068;2024-02-21T12:51:05;9.63;78.82
77218;DHT22;66214;51.302;17.068;2024-02-21T12:53:37;9.64;78.75
77218;DHT22;66214;51.302;17.068;2024-02-21T12:56:23;9.61;78.83
77218;DHT22;66214;51.302;17.068;2024-02-21T13:02:22;9.61;79.41
77218;DHT22;66214;51.302;17.068;2024-02-21T13:04:51;9.58;79.03
77218;DHT22;66214;51.302;17.068;2024-02-21T13:07:20;9.56;78.92
77218;DHT22;66214;51.302;17.068;2024-02-21T13:09:49;9.54;78.81
77218;DHT22;66214;51.302;17.068;2024-02-21T13:12:17;9.54;78.84
77218;DHT22;66214;51.302;17.068;2024-02-21T13:14:46;9.58;78.67
77218;DHT22;66214;51.302;17.068;2024-02-21T13:17:14;9.62;78.55
77218;DHT22;66214;51.302;17.068;2024-02-21T13:19:44;9.64;77.77
77218;DHT22;66214;51.302;17.068;2024-02-21T13:22:13;9.63;77.82
77218;DHT22;66214;51.302;17.068;2024-02-21T13:24:42;9.61;77.57
77218;DHT22;66214;51.302;17.068;2024-02-21T13:27:10;9.60;77.22
77218;DHT22;66214;51.302;17.068;2024-02-21T13:29:40;9.60;77.26
77218;DHT22;66214;51.302;17.068;2024-02-21T13:32:08;9.62;77.47
77218;DHT22;66214;51.302;17.068;2024-02-21T13:34:36;9.67;77.64
77218;DHT22;66214;51.302;17.068;2024-02-21T13:37:05;9.76;77.75
77218;DHT22;66214;51.302;17.068;2024-02-21T13:39:35;9.88;77.54
77218;DHT22;66214;51.302;17.068;2024-02-21T13:42:05;10.02;77.10
77218;DHT22;66214;51.302;17.068;2024-02-21T13:44:33;10.14;76.71
77218;DHT22;66214;51.302;17.068;2024-02-21T13:47:02;10.23;76.30
77218;DHT22;66214;51.302;17.068;2024-02-21T13:49:31;10.28;75.47
77218;DHT22;66214;51.302;17.068;2024-02-21T13:52:00;10.36;75.96
77218;DHT22;66214;51.302;17.068;2024-02-21T13:54:28;10.52;75.76
77218;DHT22;66214;51.302;17.068;2024-02-21T13:56:57;10.60;75.39
77218;DHT22;66214;51.302;17.068;2024-02-21T13:59:26;10.67;74.37
77218;DHT22;66214;51.302;17.068;2024-02-21T14:03:51;10.59;72.77
77218;DHT22;66214;51.302;17.068;2024-02-21T14:06:20;10.55;72.34
77218;DHT22;66214;51.302;17.068;2024-02-21T14:08:48;10.50;71.62
77218;DHT22;66214;51.302;17.068;2024-02-21T14:11:17;10.43;71.18
77218;DHT22;66214;51.302;17.068;2024-02-21T14:13:45;10.36;71.43
77218;DHT22;66214;51.302;17.068;2024-02-21T14:16:14;10.31;71.62
77218;DHT22;66214;51.302;17.068;2024-02-21T14:18:42;10.28;71.48
77218;DHT22;66214;51.302;17.068;2024-02-21T14:21:11;10.22;71.50
77218;DHT22;66214;51.302;17.068;2024-02-21T14:23:40;10.16;71.39
77218;DHT22;66214;51.302;17.068;2024-02-21T14:26:09;10.11;71.96
77218;DHT22;66214;51.302;17.068;2024-02-21T14:28:38;10.09;72.65
77218;DHT22;66214;51.302;17.068;2024-02-21T14:31:15;10.06;72.59
77218;DHT22;66214;51.302;17.068;2024-02-21T14:33:45;10.05;72.34
77218;DHT22;66214;51.302;17.068;2024-02-21T14:36:14;10.03;72.29
77218;DHT22;66214;51.302;17.068;2024-02-21T14:38:43;10.01;72.24
77218;DHT22;66214;51.302;17.068;2024-02-21T14:41:13;10.01;72.32
77218;DHT22;66214;51.302;17.068;2024-02-21T14:43:50;10.01;72.14
77218;DHT22;66214;51.302;17.068;2024-02-21T14:46:19;9.99;72.17
77218;DHT22;66214;51.302;17.068;2024-02-21T14:48:48;9.98;72.37
77218;DHT22;66214;51.302;17.068;2024-02-21T14:51:16;9.96;72.80
77218;DHT22;66214;51.302;17.068;2024-02-21T14:53:45;9.96;73.29
77218;DHT22;66214;51.302;17.068;2024-02-21T14:56:16;9.97;73.51
77218;DHT22;66214;51.302;17.068;2024-02-21T14:58:45;9.96;73.29
77218;DHT22;66214;51.302;17.068;2024-02-21T15:01:15;9.97;73.11
77218;DHT22;66214;51.302;17.068;2024-02-21T15:03:43;9.98;73.00
77218;DHT22;66214;51.302;17.068;2024-02-21T15:06:12;9.97;72.94
77218;DHT22;66214;51.302;17.068;2024-02-21T15:08:41;9.95;72.95
77218;DHT22;66214;51.302;17.068;2024-02-21T15:11:09;9.94;72.81
77218;DHT22;66214;51.302;17.068;2024-02-21T15:13:38;9.93;72.78
77218;DHT22;66214;51.302;17.068;2024-02-21T15:16:06;9.90;73.30
77218;DHT22;66214;51.302;17.068;2024-02-21T15:18:34;9.90;73.76
77218;DHT22;66214;51.302;17.068;2024-02-21T15:21:05;9.90;74.06
77218;DHT22;66214;51.302;17.068;2024-02-21T15:23:35;9.91;73.88
77218;DHT22;66214;51.302;17.068;2024-02-21T15:26:03;9.90;73.77
77218;DHT22;66214;51.302;17.068;2024-02-21T15:28:32;9.90;73.78
77218;DHT22;66214;51.302;17.068;2024-02-21T15:31:00;9.89;73.90
77218;DHT22;66214;51.302;17.068;2024-02-21T15:33:29;9.90;73.97
77218;DHT22;66214;51.302;17.068;2024-02-21T15:35:58;9.91;73.88
77218;DHT22;66214;51.302;17.068;2024-02-21T15:38:26;9.90;73.72
77218;DHT22;66214;51.302;17.068;2024-02-21T15:40:56;9.88;73.62
77218;DHT22;66214;51.302;17.068;2024-02-21T15:43:25;9.86;73.98
77218;DHT22;66214;51.302;17.068;2024-02-21T15:45:55;9.85;74.29
77218;DHT22;66214;51.302;17.068;2024-02-21T15:48:23;9.84;74.44
77218;DHT22;66214;51.302;17.068;2024-02-21T15:50:52;9.79;74.16
77218;DHT22;66214;51.302;17.068;2024-02-21T15:53:22;9.74;73.89
77218;DHT22;66214;51.302;17.068;2024-02-21T15:55:53;9.66;73.70
77218;DHT22;66214;51.302;17.068;2024-02-21T15:58:21;9.56;73.58
77218;DHT22;66214;51.302;17.068;2024-02-21T16:00:52;9.46;73.52
77218;DHT22;66214;51.302;17.068;2024-02-21T16:03:21;9.34;73.54
77218;DHT22;66214;51.302;17.068;2024-02-21T16:05:49;9.23;73.54
77218;DHT22;66214;51.302;17.068;2024-02-21T16:08:18;9.12;73.70
77218;DHT22;66214;51.302;17.068;2024-02-21T16:10:46;9.02;73.93
77218;DHT22;66214;51.302;17.068;2024-02-21T16:13:15;8.91;74.40
77218;DHT22;66214;51.302;17.068;2024-02-21T16:15:43;8.79;74.86
77218;DHT22;66214;51.302;17.068;2024-02-21T16:21:34;8.57;75.79
77218;DHT22;66214;51.302;17.068;2024-02-21T16:24:03;8.47;75.85
77218;DHT22;66214;51.302;17.068;2024-02-21T16:26:38;8.36;75.87
77218;DHT22;66214;51.302;17.068;2024-02-21T16:29:06;8.25;75.86
77218;DHT22;66214;51.302;17.068;2024-02-21T16:31:35;8.15;75.86
77218;DHT22;66214;51.302;17.068;2024-02-21T16:34:05;8.05;76.00
77218;DHT22;66214;51.302;17.068;2024-02-21T16:36:36;7.96;76.52
77218;DHT22;66214;51.302;17.068;2024-02-21T16:39:07;7.89;76.89
77218;DHT22;66214;51.302;17.068;2024-02-21T16:41:35;7.82;77.25
77218;DHT22;66214;51.302;17.068;2024-02-21T16:44:04;7.77;77.55
77218;DHT22;66214;51.302;17.068;2024-02-21T16:46:32;7.70;77.56
77218;DHT22;66214;51.302;17.068;2024-02-21T16:49:01;7.63;77.49
77218;DHT22;66214;51.302;17.068;2024-02-21T16:51:29;7.56;77.49
77218;DHT22;66214;51.302;17.068;2024-02-21T16:53:58;7.49;77.53
77218;DHT22;66214;51.302;17.068;2024-02-21T16:56:29;7.44;77.60
77218;DHT22;66214;51.302;17.068;2024-02-21T16:58:58;7.41;77.71
77218;DHT22;66214;51.302;17.068;2024-02-21T17:03:51;7.38;78.26
77218;DHT22;66214;51.302;17.068;2024-02-21T17:06:19;7.43;78.49
77218;DHT22;66214;51.302;17.068;2024-02-21T17:08:47;7.44;78.85
77218;DHT22;66214;51.302;17.068;2024-02-21T17:11:16;7.45;79.12
77218;DHT22;66214;51.302;17.068;2024-02-21T17:13:45;7.44;79.10
77218;DHT22;66214;51.302;17.068;2024-02-21T17:16:15;7.41;78.97
77218;DHT22;66214;51.302;17.068;2024-02-21T17:18:43;7.36;78.87
77218;DHT22;66214;51.302;17.068;2024-02-21T17:21:14;7.31;78.79
77218;DHT22;66214;51.302;17.068;2024-02-21T17:23:42;7.25;78.73
77218;DHT22;66214;51.302;17.068;2024-02-21T17:26:11;7.17;78.69
77218;DHT22;66214;51.302;17.068;2024-02-21T17:28:40;7.10;78.88
77218;DHT22;66214;51.302;17.068;2024-02-21T17:31:10;7.03;79.27
77218;DHT22;66214;51.302;17.068;2024-02-21T17:33:39;6.97;79.74
77218;DHT22;66214;51.302;17.068;2024-02-21T17:36:10;6.95;80.12
77218;DHT22;66214;51.302;17.068;2024-02-21T17:41:58;6.92;80.34
77218;DHT22;66214;51.302;17.068;2024-02-21T17:44:27;6.90;80.25
77218;DHT22;66214;51.302;17.068;2024-02-21T17:46:57;6.86;80.16
77218;DHT22;66214;51.302;17.068;2024-02-21T17:49:26;6.83;80.36
77218;DHT22;66214;51.302;17.068;2024-02-21T17:51:54;6.82;80.63
77218;DHT22;66214;51.302;17.068;2024-02-21T17:54:24;6.80;80.99
77218;DHT22;66214;51.302;17.068;2024-02-21T17:56:52;6.80;81.27
77218;DHT22;66214;51.302;17.068;2024-02-21T17:59:21;6.78;81.13
77218;DHT22;66214;51.302;17.068;2024-02-21T18:01:50;6.76;80.95
77218;DHT22;66214;51.302;17.068;2024-02-21T18:04:19;6.72;80.89
77218;DHT22;66214;51.302;17.068;2024-02-21T18:06:48;6.69;80.91
77218;DHT22;66214;51.302;17.068;2024-02-21T18:09:17;6.66;81.06
77218;DHT22;66214;51.302;17.068;2024-02-21T18:11:45;6.64;81.39
77218;DHT22;66214;51.302;17.068;2024-02-21T18:14:14;6.61;81.64
77218;DHT22;66214;51.302;17.068;2024-02-21T18:16:43;6.57;81.81
77218;DHT22;66214;51.302;17.068;2024-02-21T18:19:11;6.55;81.77
77218;DHT22;66214;51.302;17.068;2024-02-21T18:21:40;6.50;81.62
77218;DHT22;66214;51.302;17.068;2024-02-21T18:24:09;6.46;81.49
77218;DHT22;66214;51.302;17.068;2024-02-21T18:26:38;6.41;81.38
77218;DHT22;66214;51.302;17.068;2024-02-21T18:29:07;6.34;81.44
77218;DHT22;66214;51.302;17.068;2024-02-21T18:31:37;6.31;81.68
77218;DHT22;66214;51.302;17.068;2024-02-21T18:37:30;6.30;82.82
77218;DHT22;66214;51.302;17.068;2024-02-21T18:40:00;6.29;82.92
77218;DHT22;66214;51.302;17.068;2024-02-21T18:42:30;6.26;82.69
77218;DHT22;66214;51.302;17.068;2024-02-21T18:44:59;6.22;82.50
77218;DHT22;66214;51.302;17.068;2024-02-21T18:47:28;6.19;82.35
77218;DHT22;66214;51.302;17.068;2024-02-21T18:49:57;6.15;82.18
77218;DHT22;66214;51.302;17.068;2024-02-21T18:52:28;6.08;82.19
77218;DHT22;66214;51.302;17.068;2024-02-21T18:55:23;6.05;82.37
77218;DHT22;66214;51.302;17.068;2024-02-21T18:57:52;6.02;82.70
77218;DHT22;66214;51.302;17.068;2024-02-21T19:00:20;6.00;82.94
77218;DHT22;66214;51.302;17.068;2024-02-21T19:02:52;5.99;83.10
77218;DHT22;66214;51.302;17.068;2024-02-21T19:05:21;5.98;83.03
77218;DHT22;66214;51.302;17.068;2024-02-21T19:07:50;5.94;82.97
77218;DHT22;66214;51.302;17.068;2024-02-21T19:10:18;5.93;82.85
77218;DHT22;66214;51.302;17.068;2024-02-21T19:12:48;5.89;82.75
77218;DHT22;66214;51.302;17.068;2024-02-21T19:15:18;5.88;82.90
77218;DHT22;66214;51.302;17.068;2024-02-21T19:17:46;5.86;83.20
77218;DHT22;66214;51.302;17.068;2024-02-21T19:20:14;5.86;83.51
77218;DHT22;66214;51.302;17.068;2024-02-21T19:23:01;5.85;83.57
77218;DHT22;66214;51.302;17.068;2024-02-21T19:25:31;5.83;83.51
77218;DHT22;66214;51.302;17.068;2024-02-21T19:28:00;5.82;83.48
77218;DHT22;66214;51.302;17.068;2024-02-21T19:30:29;5.80;83.53
77218;DHT22;66214;51.302;17.068;2024-02-21T19:32:58;5.79;83.74
77218;DHT22;66214;51.302;17.068;2024-02-21T19:35:26;5.79;83.90
77218;DHT22;66214;51.302;17.068;2024-02-21T19:37:57;5.77;84.05
77218;DHT22;66214;51.302;17.068;2024-02-21T19:40:30;5.77;84.16
77218;DHT22;66214;51.302;17.068;2024-02-21T19:43:00;5.75;84.06